Time;durP1;ratioP1;P1;durP2;ratioP2;P2;SDS_P1;SDS_P2;PMS_P1;PMS_P2;Temp;Humidity;BMP_temperature;BMP_pressure;BME280_temperature;BME280_humidity;BME280_pressure;Samples;Min_cycle;Max_cycle;Signal;HPM_P1;HPM_P2
2021/01/01 00:02:48;;;;;;;23.10;18.90;;;4.60;99.90;;;;;;10478970;28;20224;-83
2021/01/01 00:07:51;;;;;;;16.57;14.43;;;4.60;99.90;;;;;;10490143;28;20230;-83
2021/01/01 00:12:53;;;;;;;15.10;13.50;;;4.60;99.90;;;;;;10481149;28;20491;-82
2021/01/01 00:17:54;;;;;;;13.37;12.07;;;4.80;99.90;;;;;;10496029;28;20273;-82
2021/01/01 00:22:57;;;;;;;17.50;15.70;;;4.90;99.90;;;;;;10479712;28;20297;-83
2021/01/01 00:27:59;;;;;;;19.10;16.07;;;5.10;99.90;;;;;;10484934;28;20775;-83
2021/01/01 00:33:00;;;;;;;16.87;15.03;;;5.30;99.90;;;;;;10492308;28;20228;-83
2021/01/01 00:38:03;;;;;;;13.73;12.33;;;5.40;99.90;;;;;;10474716;28;20205;-84
2021/01/01 00:43:05;;;;;;;12.20;11.00;;;5.50;99.90;;;;;;10490760;28;20292;-84
2021/01/01 00:48:07;;;;;;;12.50;11.23;;;5.60;99.90;;;;;;10491949;28;20207;-83
2021/01/01 00:53:09;;;;;;;11.10;10.00;;;5.70;99.90;;;;;;10490695;28;20243;-83
2021/01/01 00:58:11;;;;;;;11.50;10.50;;;5.80;99.90;;;;;;10499309;28;20268;-83
2021/01/01 01:03:13;;;;;;;11.57;10.37;;;5.80;99.90;;;;;;10500784;28;20258;-82
2021/01/01 01:08:15;;;;;;;11.10;10.00;;;5.80;99.90;;;;;;10508460;28;20299;-83
2021/01/01 01:13:17;;;;;;;10.33;9.43;;;5.80;99.90;;;;;;10473683;28;20220;-83
2021/01/01 01:18:19;;;;;;;10.80;9.80;;;5.70;99.90;;;;;;10490207;28;20676;-83
2021/01/01 01:23:21;;;;;;;11.13;10.03;;;5.80;99.90;;;;;;10508070;28;20244;-82
2021/01/01 01:28:23;;;;;;;11.70;10.60;;;5.80;99.90;;;;;;10496828;28;20208;-83
2021/01/01 01:33:26;;;;;;;11.00;10.00;;;5.90;99.90;;;;;;10493162;28;20224;-83
2021/01/01 01:38:28;;;;;;;10.37;9.40;;;6.00;99.90;;;;;;10493175;28;20705;-83
2021/01/01 01:43:30;;;;;;;11.13;10.03;;;6.00;99.90;;;;;;10493259;28;20216;-83
2021/01/01 01:48:34;;;;;;;10.13;9.13;;;6.00;99.90;;;;;;10491326;28;20253;-82
2021/01/01 01:53:40;;;;;;;10.20;9.20;;;6.00;99.90;;;;;;10508873;28;20216;-82
2021/01/01 01:58:43;;;;;;;10.30;9.40;;;6.10;99.90;;;;;;10509514;28;20228;-83
2021/01/01 02:03:45;;;;;;;10.93;9.70;;;6.10;99.90;;;;;;10490944;28;20574;-83
2021/01/01 02:08:49;;;;;;;10.53;9.50;;;6.10;99.90;;;;;;10496592;28;20227;-82
2021/01/01 02:13:56;;;;;;;10.23;9.30;;;6.10;99.90;;;;;;10474717;28;20212;-82
2021/01/01 02:18:57;;;;;;;10.67;9.67;;;6.10;99.90;;;;;;10498325;28;20200;-83
2021/01/01 02:24:00;;;;;;;9.77;8.87;;;6.10;99.90;;;;;;10499092;28;20602;-82
2021/01/01 02:29:01;;;;;;;10.23;9.20;;;6.10;99.90;;;;;;10500220;28;20234;-83
2021/01/01 02:34:03;;;;;;;10.00;9.10;;;6.10;99.90;;;;;;10480255;28;20228;-82
2021/01/01 02:39:06;;;;;;;11.17;10.07;;;6.10;99.90;;;;;;10485579;28;20224;-83
2021/01/01 02:44:07;;;;;;;12.10;10.90;;;6.10;99.90;;;;;;10501019;28;20235;-84
2021/01/01 02:49:09;;;;;;;10.00;9.10;;;6.10;99.90;;;;;;10500495;28;20560;-82
2021/01/01 02:54:12;;;;;;;10.07;9.07;;;6.10;99.90;;;;;;10481770;28;20217;-82
2021/01/01 02:59:13;;;;;;;10.10;9.10;;;6.00;99.90;;;;;;10484014;28;20192;-83
2021/01/01 03:04:15;;;;;;;10.70;9.70;;;6.00;99.90;;;;;;10477258;28;20241;-83
2021/01/01 03:09:17;;;;;;;10.80;9.80;;;6.00;99.90;;;;;;10449299;28;20201;-82
2021/01/01 03:14:19;;;;;;;10.43;9.53;;;5.90;99.90;;;;;;10493317;28;20288;-83
2021/01/01 03:19:21;;;;;;;10.17;9.17;;;5.90;99.90;;;;;;10459111;28;20197;-82
2021/01/01 03:24:23;;;;;;;11.57;10.43;;;5.70;99.90;;;;;;10469868;28;20670;-82
2021/01/01 03:29:25;;;;;;;12.47;11.27;;;5.60;99.90;;;;;;10478238;28;20224;-82
2021/01/01 03:34:26;;;;;;;13.00;11.70;;;5.50;99.90;;;;;;10504761;28;20253;-83
2021/01/01 03:39:29;;;;;;;13.70;12.30;;;5.30;99.90;;;;;;10485490;28;20200;-85
2021/01/01 03:44:30;;;;;;;14.47;12.90;;;5.20;99.90;;;;;;10520832;28;20247;-84
2021/01/01 03:49:32;;;;;;;14.03;12.63;;;5.10;99.90;;;;;;10504599;28;20217;-81
2021/01/01 03:54:34;;;;;;;16.57;14.97;;;5.10;99.90;;;;;;10501014;28;20291;-82
2021/01/01 03:59:36;;;;;;;15.67;14.07;;;5.00;99.90;;;;;;10487486;28;20197;-82
2021/01/01 04:04:38;;;;;;;15.70;14.20;;;5.00;99.90;;;;;;10506584;28;20224;-82
2021/01/01 04:09:40;;;;;;;15.27;13.80;;;4.90;99.90;;;;;;10507796;28;20192;-83
2021/01/01 04:14:42;;;;;;;15.97;14.13;;;4.90;99.90;;;;;;10512275;28;20209;-84
2021/01/01 04:19:44;;;;;;;17.23;15.40;;;4.90;99.90;;;;;;10485206;28;20268;-83
2021/01/01 04:24:46;;;;;;;16.67;14.97;;;4.80;99.90;;;;;;10460341;28;20243;-82
2021/01/01 04:29:48;;;;;;;15.10;13.50;;;4.90;99.90;;;;;;10487468;28;20197;-83
2021/01/01 04:34:49;;;;;;;15.23;13.67;;;4.90;99.90;;;;;;10509257;28;20719;-82
2021/01/01 04:39:52;;;;;;;16.23;14.53;;;4.90;99.90;;;;;;10504513;28;20196;-82
2021/01/01 04:44:54;;;;;;;15.00;13.50;;;4.90;99.90;;;;;;10489962;28;20232;-83
2021/01/01 04:49:55;;;;;;;16.70;15.00;;;4.90;99.90;;;;;;10510393;28;20287;-83
2021/01/01 04:54:59;;;;;;;15.30;13.70;;;4.90;99.90;;;;;;10506563;28;20213;-83
2021/01/01 05:00:00;;;;;;;16.40;14.50;;;4.90;99.90;;;;;;10504728;28;20200;-83
2021/01/01 05:05:02;;;;;;;17.37;15.17;;;4.90;99.90;;;;;;10506952;28;20235;-83
2021/01/01 05:10:06;;;;;;;18.03;16.13;;;4.90;99.90;;;;;;10507807;28;20204;-83
2021/01/01 05:15:09;;;;;;;16.70;15.10;;;5.00;99.90;;;;;;10489458;28;20208;-82
2021/01/01 05:20:12;;;;;;;17.73;15.90;;;5.00;99.90;;;;;;10511531;28;20584;-84
2021/01/01 05:25:17;;;;;;;19.13;16.20;;;5.00;99.90;;;;;;10502447;28;20633;-83
2021/01/01 05:30:30;;;;;;;17.77;15.87;;;5.00;99.90;;;;;;10455886;28;20292;-83
2021/01/01 05:35:32;;;;;;;18.57;16.57;;;5.00;99.90;;;;;;10464085;28;20685;-83
2021/01/01 05:40:34;;;;;;;18.07;15.97;;;5.00;99.90;;;;;;10446074;28;20201;-84
2021/01/01 05:45:36;;;;;;;18.40;16.53;;;5.00;99.90;;;;;;10447678;28;20293;-83
2021/01/01 05:50:38;;;;;;;17.47;15.33;;;5.10;99.90;;;;;;10445893;28;20197;-84
2021/01/01 05:55:41;;;;;;;17.50;15.60;;;5.20;99.90;;;;;;10465331;28;20217;-83
2021/01/01 06:00:42;;;;;;;14.03;11.87;;;5.20;99.90;;;;;;10479815;28;20208;-84
2021/01/01 06:05:47;;;;;;;18.67;16.40;;;5.20;99.90;;;;;;10505608;28;20224;-84
2021/01/01 06:10:50;;;;;;;15.00;12.40;;;5.30;99.90;;;;;;10507537;28;20212;-84
2021/01/01 06:15:57;;;;;;;11.70;10.60;;;5.30;99.90;;;;;;10506581;28;20196;-84
2021/01/01 06:21:00;;;;;;;11.50;10.40;;;5.20;99.90;;;;;;10508654;28;20212;-84
2021/01/01 06:26:04;;;;;;;10.90;9.90;;;5.20;99.90;;;;;;10495969;28;20220;-83
2021/01/01 06:31:06;;;;;;;11.57;10.47;;;5.20;99.90;;;;;;10508434;28;20274;-84
2021/01/01 06:36:08;;;;;;;11.00;10.03;;;5.20;99.90;;;;;;10509542;28;20254;-82
2021/01/01 06:41:15;;;;;;;11.63;10.50;;;5.20;99.90;;;;;;10527874;28;20313;-83
2021/01/01 06:46:32;;;;;;;11.53;10.43;;;5.20;99.90;;;;;;10497329;28;20199;-83
2021/01/01 06:51:34;;;;;;;9.70;8.90;;;5.20;99.90;;;;;;10499708;28;20695;-83
2021/01/01 06:56:40;;;;;;;10.20;9.30;;;5.20;99.90;;;;;;10500745;28;20197;-83
2021/01/01 07:01:43;;;;;;;9.40;8.50;;;5.10;99.90;;;;;;10501749;28;20246;-83
2021/01/01 07:06:44;;;;;;;9.23;8.43;;;5.00;99.90;;;;;;10490967;28;20225;-83
2021/01/01 07:11:47;;;;;;;9.17;8.37;;;5.00;99.90;;;;;;10510974;28;20216;-83
2021/01/01 07:16:55;;;;;;;9.67;8.77;;;5.00;99.90;;;;;;10509476;28;20235;-84
2021/01/01 07:21:56;;;;;;;9.90;9.00;;;5.10;99.90;;;;;;10564769;28;20224;-81
2021/01/01 07:26:59;;;;;;;9.50;8.60;;;5.10;99.90;;;;;;10514475;28;20200;-82
2021/01/01 07:32:01;;;;;;;8.73;8.03;;;5.10;99.90;;;;;;10501309;28;20216;-82
2021/01/01 07:37:03;;;;;;;8.17;7.37;;;5.10;99.90;;;;;;10485459;28;20197;-83
2021/01/01 07:42:07;;;;;;;8.63;7.87;;;5.10;99.90;;;;;;10509998;28;20235;-84
2021/01/01 07:47:11;;;;;;;9.30;8.50;;;5.10;99.90;;;;;;10510308;28;20189;-84
2021/01/01 07:52:15;;;;;;;9.00;8.20;;;5.20;99.90;;;;;;10502502;28;20219;-84
2021/01/01 07:57:21;;;;;;;7.97;7.30;;;5.20;99.90;;;;;;10499924;28;20616;-83
2021/01/01 08:02:23;;;;;;;8.57;7.83;;;5.20;99.90;;;;;;10482605;28;20719;-83
2021/01/01 08:07:25;;;;;;;7.53;6.93;;;5.20;99.90;;;;;;10499677;28;20251;-83
2021/01/01 08:12:27;;;;;;;7.63;7.03;;;5.20;99.90;;;;;;10482415;28;20216;-84
2021/01/01 08:17:29;;;;;;;7.30;6.70;;;5.20;99.90;;;;;;10498932;28;20200;-84
2021/01/01 08:22:35;;;;;;;7.23;6.60;;;5.30;99.90;;;;;;10516549;28;20256;-84
2021/01/01 08:27:38;;;;;;;7.30;6.70;;;5.30;99.90;;;;;;10499363;28;20652;-83
2021/01/01 08:32:40;;;;;;;5.23;4.83;;;5.40;99.90;;;;;;10502433;28;20231;-83
2021/01/01 08:37:42;;;;;;;6.30;5.80;;;5.40;99.90;;;;;;10514870;28;20680;-82
2021/01/01 08:42:46;;;;;;;8.60;7.80;;;5.40;99.90;;;;;;10497599;28;20243;-83
2021/01/01 08:47:49;;;;;;;7.10;6.50;;;5.40;99.90;;;;;;10481660;28;20192;-83
2021/01/01 08:52:58;;;;;;;22.73;20.43;;;5.40;99.90;;;;;;10507282;28;20227;-84
2021/01/01 08:58:14;;;;;;;7.20;6.60;;;5.30;99.90;;;;;;10512808;28;20208;-83
2021/01/01 09:03:32;;;;;;;6.90;6.30;;;5.40;99.90;;;;;;10479821;28;20683;-83
2021/01/01 09:15:30;;;;;;;5.07;4.57;;;5.40;99.90;;;;;;10346333;28;20223;-82
2021/01/01 09:20:40;;;;;;;5.30;4.90;;;5.40;99.90;;;;;;10477639;28;20261;-83
2021/01/01 09:26:08;;;;;;;4.67;4.27;;;5.40;99.90;;;;;;10497170;28;20224;-85
2021/01/01 09:31:15;;;;;;;4.10;3.80;;;5.50;99.90;;;;;;10491478;28;20228;-82
2021/01/01 09:36:23;;;;;;;4.27;3.93;;;5.60;99.90;;;;;;10513092;28;20237;-82
2021/01/01 09:41:26;;;;;;;4.30;4.00;;;5.80;99.90;;;;;;10461331;28;20700;-84
2021/01/01 09:46:29;;;;;;;4.67;4.27;;;5.90;99.90;;;;;;10475031;28;20196;-82
2021/01/01 09:51:30;;;;;;;4.63;4.30;;;6.00;99.90;;;;;;10492351;28;20250;-84
2021/01/01 09:56:33;;;;;;;4.00;3.70;;;6.00;99.90;;;;;;10475682;28;20207;-82
2021/01/01 10:01:36;;;;;;;4.50;4.10;;;6.10;99.90;;;;;;10495313;28;20319;-84
2021/01/01 10:06:37;;;;;;;4.33;4.03;;;6.10;99.90;;;;;;10492270;28;20192;-83
2021/01/01 10:11:39;;;;;;;5.10;4.70;;;6.20;99.90;;;;;;10479198;28;20212;-83
2021/01/01 10:16:42;;;;;;;4.17;3.87;;;6.40;99.90;;;;;;10495722;28;20204;-83
2021/01/01 10:21:45;;;;;;;4.67;4.27;;;6.50;99.90;;;;;;10472527;28;20277;-83
2021/01/01 10:26:53;;;;;;;3.87;3.60;;;6.50;99.90;;;;;;10480667;28;20291;-82
2021/01/01 10:32:03;;;;;;;5.07;4.63;;;6.60;99.90;;;;;;10470450;28;20338;-82
2021/01/01 10:37:10;;;;;;;4.37;4.00;;;6.70;99.90;;;;;;10477147;28;20392;-82
2021/01/01 10:42:15;;;;;;;3.90;3.60;;;6.70;99.90;;;;;;10485570;28;20227;-81
2021/01/01 10:47:19;;;;;;;5.27;4.87;;;6.80;99.90;;;;;;10495845;28;20307;-83
2021/01/01 10:52:21;;;;;;;4.47;4.07;;;6.80;99.90;;;;;;10490888;28;20247;-83
2021/01/01 10:57:24;;;;;;;4.30;3.90;;;6.80;99.90;;;;;;10485066;28;20209;-83
2021/01/01 11:02:28;;;;;;;3.90;3.60;;;6.80;99.90;;;;;;10483179;28;20246;-83
2021/01/01 11:07:30;;;;;;;4.30;3.90;;;6.80;99.90;;;;;;10483844;28;20192;-83
2021/01/01 11:12:34;;;;;;;4.83;4.43;;;6.80;99.90;;;;;;10498735;28;20222;-82
2021/01/01 12:28:51;;;;;;;4.87;4.47;;;6.70;99.90;;;;;;10391747;28;20200;-83
2021/01/01 12:48:06;;;;;;;4.70;4.33;;;6.80;99.90;;;;;;10305678;28;20224;-83
2021/01/01 12:53:08;;;;;;;5.30;4.90;;;6.70;99.50;;;;;;10484555;28;20265;-83
2021/01/01 12:58:10;;;;;;;5.17;4.77;;;6.80;99.90;;;;;;10509194;28;20741;-83
2021/01/01 13:03:12;;;;;;;4.30;4.00;;;6.80;99.00;;;;;;10507191;28;20220;-83
2021/01/01 13:08:14;;;;;;;6.73;5.07;;;6.90;99.20;;;;;;10501525;28;20259;-82
2021/01/01 13:13:16;;;;;;;4.90;4.50;;;6.90;99.60;;;;;;10485791;28;20208;-83
2021/01/01 13:18:18;;;;;;;4.97;4.57;;;6.80;98.60;;;;;;10501690;28;20203;-83
2021/01/01 13:23:20;;;;;;;5.00;4.60;;;6.80;99.00;;;;;;10484296;28;20817;-82
2021/01/01 13:28:21;;;;;;;5.40;5.00;;;6.80;98.90;;;;;;10485447;28;20732;-83
2021/01/01 13:33:24;;;;;;;5.87;5.33;;;6.80;99.30;;;;;;10478617;28;20662;-82
2021/01/01 13:38:26;;;;;;;5.90;5.40;;;6.80;99.40;;;;;;10490372;28;20206;-82
2021/01/01 13:43:27;;;;;;;5.87;5.37;;;6.80;99.30;;;;;;10467973;28;20215;-82
2021/01/01 13:48:30;;;;;;;4.80;4.40;;;6.90;99.90;;;;;;10471984;28;20215;-82
2021/01/01 13:53:32;;;;;;;4.80;4.40;;;6.90;99.30;;;;;;10488276;28;20230;-83
2021/01/01 13:58:34;;;;;;;4.80;4.40;;;7.00;99.40;;;;;;10483103;28;20708;-83
2021/01/01 14:03:37;;;;;;;5.43;4.93;;;7.00;98.80;;;;;;10482714;28;20224;-82
2021/01/01 14:08:39;;;;;;;5.93;5.40;;;7.10;98.60;;;;;;10469180;28;20697;-83
2021/01/01 14:13:41;;;;;;;5.90;5.33;;;7.20;99.00;;;;;;10485731;28;20711;-82
2021/01/01 14:18:43;;;;;;;5.40;5.00;;;7.20;98.70;;;;;;10485413;28;20291;-83
2021/01/01 14:23:45;;;;;;;4.70;4.40;;;7.30;98.20;;;;;;10486124;28;20221;-83
2021/01/01 14:28:47;;;;;;;5.10;4.60;;;7.20;97.70;;;;;;10483813;28;21424;-82
2021/01/01 14:33:49;;;;;;;5.87;5.37;;;7.00;96.50;;;;;;10486070;28;20228;-83
2021/01/01 14:38:51;;;;;;;4.33;4.03;;;6.90;97.20;;;;;;10471201;28;20576;-82
2021/01/01 14:43:52;;;;;;;4.97;4.57;;;6.70;96.60;;;;;;10490996;28;20248;-82
2021/01/01 14:48:55;;;;;;;4.93;4.53;;;6.60;97.00;;;;;;10475032;28;20216;-83
2021/01/01 14:53:57;;;;;;;6.10;5.50;;;6.60;97.40;;;;;;10492129;28;20213;-83
2021/01/01 14:58:58;;;;;;;5.90;5.30;;;6.50;98.20;;;;;;10486116;28;20272;-84
2021/01/01 15:04:01;;;;;;;5.90;5.40;;;6.50;98.40;;;;;;10485523;28;20684;-83
2021/01/01 15:09:03;;;;;;;6.23;5.60;;;6.50;98.50;;;;;;10506281;28;20265;-82
2021/01/01 15:14:05;;;;;;;6.37;5.77;;;6.50;98.60;;;;;;10489756;28;20651;-82
2021/01/01 15:19:07;;;;;;;6.63;6.03;;;6.40;98.70;;;;;;10472705;28;20215;-82
2021/01/01 15:24:11;;;;;;;8.40;7.60;;;6.40;99.00;;;;;;10473324;28;20234;-82
2021/01/01 15:29:13;;;;;;;8.43;7.60;;;6.30;99.50;;;;;;10511487;28;20205;-82
2021/01/01 15:34:15;;;;;;;7.30;6.60;;;6.30;99.30;;;;;;10492388;28;20221;-81
2021/01/01 15:39:17;;;;;;;6.33;5.77;;;6.10;99.30;;;;;;10500259;28;20205;-82
2021/01/01 15:44:19;;;;;;;9.37;8.40;;;6.00;99.90;;;;;;10487038;28;20624;-82
2021/01/01 15:49:21;;;;;;;12.60;11.37;;;5.90;99.90;;;;;;10490428;28;20208;-84
2021/01/01 15:54:24;;;;;;;14.03;12.20;;;5.80;99.90;;;;;;10484058;28;20216;-85
2021/01/01 15:59:25;;;;;;;11.40;10.20;;;5.60;99.90;;;;;;10508470;28;20196;-85
2021/01/01 16:04:28;;;;;;;16.17;14.57;;;5.50;99.90;;;;;;10496449;28;20224;-82
2021/01/01 16:09:30;;;;;;;28.37;20.90;;;5.40;99.90;;;;;;10495138;28;20196;-85
2021/01/01 16:14:31;;;;;;;31.57;23.53;;;5.30;99.90;;;;;;10517199;28;20238;-81
2021/01/01 16:19:37;;;;;;;29.67;26.40;;;5.20;99.90;;;;;;10491729;28;20205;-83
2021/01/01 16:24:39;;;;;;;16.27;13.93;;;5.00;99.90;;;;;;10505233;28;20307;-82
2021/01/01 16:29:40;;;;;;;11.90;10.80;;;4.90;99.90;;;;;;10488189;28;20204;-82
2021/01/01 16:34:43;;;;;;;11.57;10.47;;;4.80;99.90;;;;;;10513821;28;20212;-83
2021/01/01 16:39:59;;;;;;;13.27;11.97;;;4.70;99.90;;;;;;10507450;28;20205;-83
2021/01/01 16:45:03;;;;;;;12.90;11.13;;;4.60;99.90;;;;;;10710509;22;20904;-83
2021/01/01 16:50:21;;;;;;;15.70;13.87;;;4.50;99.90;;;;;;10546690;28;20217;-83
2021/01/01 16:55:23;;;;;;;11.77;10.67;;;4.40;99.90;;;;;;10511372;28;20498;-82
2021/01/01 17:00:25;;;;;;;17.03;13.87;;;4.30;99.90;;;;;;10505726;28;20856;-83
2021/01/01 17:05:28;;;;;;;12.47;10.77;;;4.20;99.90;;;;;;10512494;28;20280;-85
2021/01/01 17:10:29;;;;;;;13.37;11.73;;;4.10;99.90;;;;;;10509991;28;20464;-82
2021/01/01 17:15:31;;;;;;;14.30;12.80;;;4.10;99.90;;;;;;10530656;28;20196;-83
2021/01/01 17:20:34;;;;;;;15.27;13.67;;;4.00;99.90;;;;;;10550690;28;20199;-82
2021/01/01 17:25:35;;;;;;;13.33;11.93;;;4.00;99.90;;;;;;10494278;28;20225;-83
2021/01/01 17:30:37;;;;;;;13.20;11.80;;;4.00;99.90;;;;;;10515053;28;20200;-83
2021/01/01 17:35:39;;;;;;;13.73;12.20;;;3.90;99.90;;;;;;10491995;28;20215;-82
2021/01/01 17:40:41;;;;;;;12.40;11.13;;;3.90;99.90;;;;;;10484195;28;20200;-82
2021/01/01 17:45:43;;;;;;;12.70;11.37;;;3.80;99.90;;;;;;10499577;28;20235;-85
2021/01/01 17:50:46;;;;;;;17.33;13.37;;;3.70;99.90;;;;;;10506713;28;20261;-85
2021/01/01 17:55:48;;;;;;;15.20;12.77;;;3.70;99.90;;;;;;10534147;28;20192;-84
2021/01/01 18:00:51;;;;;;;13.03;11.70;;;3.70;99.90;;;;;;10514460;28;20216;-86
2021/01/01 18:05:53;;;;;;;15.10;13.50;;;3.70;99.90;;;;;;10493006;28;20248;-83
2021/01/01 18:10:56;;;;;;;15.57;13.97;;;3.60;99.90;;;;;;10532776;28;20218;-83
2021/01/01 18:15:57;;;;;;;17.57;15.37;;;3.60;99.90;;;;;;10488535;28;20614;-83
2021/01/01 18:21:01;;;;;;;13.40;12.00;;;3.60;99.90;;;;;;10509698;28;20811;-84
2021/01/01 18:26:07;;;;;;;13.13;11.60;;;3.60;99.90;;;;;;10490177;28;20209;-85
2021/01/01 18:31:12;;;;;;;11.70;10.60;;;3.60;99.90;;;;;;10513865;28;20230;-85
2021/01/01 18:36:17;;;;;;;12.23;11.00;;;3.70;99.90;;;;;;10517650;28;20205;-84
2021/01/01 18:41:22;;;;;;;11.73;10.53;;;3.70;99.90;;;;;;10509333;28;20227;-84
2021/01/01 18:46:24;;;;;;;10.70;9.60;;;3.70;99.90;;;;;;10497561;28;20257;-86
2021/01/01 18:51:29;;;;;;;11.27;10.17;;;3.70;99.90;;;;;;10499128;28;20314;-84
2021/01/01 18:56:38;;;;;;;16.00;11.93;;;3.70;99.90;;;;;;10486852;28;20496;-82
2021/01/01 19:01:46;;;;;;;13.60;11.50;;;3.70;99.90;;;;;;10477523;28;20244;-82
2021/01/01 19:07:09;;;;;;;12.70;11.47;;;3.70;99.90;;;;;;10522513;28;20246;-83
2021/01/01 19:12:12;;;;;;;12.83;11.53;;;3.70;99.90;;;;;;10506971;28;20231;-84
2021/01/01 19:17:16;;;;;;;14.10;12.17;;;3.80;99.90;;;;;;10508737;28;20193;-83
2021/01/01 19:22:31;;;;;;;16.43;13.10;;;3.80;99.90;;;;;;10484725;28;20227;-83
2021/01/01 19:28:04;;;;;;;18.70;15.33;;;3.80;99.90;;;;;;10477376;28;20341;-83
2021/01/01 19:33:57;;;;;;;16.73;13.67;;;3.80;99.90;;;;;;10526880;28;20856;-83
2021/01/01 19:39:41;;;;;;;14.50;13.00;;;3.90;99.90;;;;;;10531331;28;20276;-82
2021/01/01 19:45:13;;;;;;;13.43;12.03;;;3.80;99.90;;;;;;10508582;28;20596;-86
2021/01/01 19:50:23;;;;;;;14.00;11.10;;;3.80;99.90;;;;;;10469727;28;20200;-83
2021/01/01 19:55:34;;;;;;;10.33;9.33;;;3.90;99.90;;;;;;10508854;28;20252;-83
2021/01/01 20:00:44;;;;;;;12.30;10.17;;;3.80;99.90;;;;;;10498722;28;20692;-84
2021/01/01 20:05:46;;;;;;;10.83;9.73;;;3.80;99.90;;;;;;10504285;28;20713;-83
2021/01/01 20:10:50;;;;;;;11.77;10.67;;;3.70;99.90;;;;;;10453751;28;20609;-83
2021/01/01 20:15:54;;;;;;;14.20;12.80;;;3.60;99.90;;;;;;10499943;28;20200;-84
2021/01/01 20:20:58;;;;;;;12.33;11.03;;;3.60;99.90;;;;;;10524655;28;20254;-85
2021/01/01 20:26:02;;;;;;;14.20;12.67;;;3.60;99.90;;;;;;10484678;28;20247;-83
2021/01/01 20:31:06;;;;;;;11.33;10.13;;;3.50;99.90;;;;;;10518446;28;20251;-85
2021/01/01 20:36:10;;;;;;;13.27;11.80;;;3.40;99.90;;;;;;10525388;28;20227;-85
2021/01/01 20:41:48;;;;;;;14.37;11.27;;;3.40;99.90;;;;;;10475583;28;20327;-83
2021/01/01 20:48:27;;;;;;;13.67;12.23;;;3.40;99.90;;;;;;10471863;28;20229;-85
2021/01/01 20:58:09;;;;;;;15.03;13.27;;;3.40;99.90;;;;;;10497304;28;20196;-83
2021/01/01 21:03:12;;;;;;;15.63;13.67;;;3.50;99.90;;;;;;10479801;28;20700;-83
2021/01/01 21:08:38;;;;;;;17.13;15.33;;;3.40;99.90;;;;;;10496759;28;20207;-83
2021/01/01 21:14:03;;;;;;;17.27;14.13;;;3.50;99.90;;;;;;10489801;28;20221;-83
2021/01/01 21:19:35;;;;;;;16.87;14.90;;;3.60;99.90;;;;;;10481247;28;20250;-83
2021/01/01 21:25:14;;;;;;;15.57;13.93;;;3.70;99.90;;;;;;10497454;28;20254;-83
2021/01/01 21:30:43;;;;;;;16.10;13.57;;;3.70;99.90;;;;;;10438113;28;20200;-84
2021/01/01 21:36:30;;;;;;;15.33;13.73;;;3.70;99.90;;;;;;10497452;28;20225;-83
2021/01/01 21:42:09;;;;;;;14.53;13.03;;;3.70;99.90;;;;;;10454432;28;20239;-83
2021/01/01 21:47:43;;;;;;;14.93;13.43;;;3.60;99.90;;;;;;10479229;28;20220;-86
2021/01/01 21:52:45;;;;;;;15.27;13.70;;;3.60;99.90;;;;;;10509639;28;20231;-83
2021/01/01 21:57:47;;;;;;;14.37;12.87;;;3.50;99.90;;;;;;10492047;28;20192;-83
2021/01/01 22:02:54;;;;;;;17.73;14.63;;;3.50;99.90;;;;;;10476303;28;20267;-85
2021/01/01 22:07:56;;;;;;;17.77;15.40;;;3.40;99.90;;;;;;10497589;28;20204;-83
2021/01/01 22:12:58;;;;;;;16.80;14.57;;;3.30;99.90;;;;;;10441033;28;20684;-85
2021/01/01 22:18:02;;;;;;;18.90;16.90;;;3.30;99.90;;;;;;10479673;28;20200;-83
2021/01/01 22:23:05;;;;;;;17.97;15.03;;;3.30;99.90;;;;;;10462147;28;20275;-83
2021/01/01 22:28:06;;;;;;;17.57;15.60;;;3.30;99.90;;;;;;10451235;28;20396;-82
2021/01/01 22:33:08;;;;;;;15.43;13.80;;;3.20;99.90;;;;;;10490725;28;20227;-82
2021/01/01 22:38:10;;;;;;;20.73;16.40;;;3.20;99.90;;;;;;10515939;28;20680;-85
2021/01/01 22:43:12;;;;;;;16.83;15.03;;;3.20;99.90;;;;;;10497658;28;20692;-86
2021/01/01 22:48:14;;;;;;;14.70;12.20;;;3.20;99.90;;;;;;10498788;28;20207;-85
2021/01/01 22:53:16;;;;;;;17.67;15.77;;;3.30;99.90;;;;;;10495081;28;20724;-84
2021/01/01 22:58:23;;;;;;;17.53;14.97;;;3.30;99.90;;;;;;10500664;28;20723;-85
2021/01/01 23:03:26;;;;;;;19.20;15.77;;;3.40;99.90;;;;;;10507356;28;20697;-83
2021/01/01 23:08:32;;;;;;;15.90;14.20;;;3.50;99.90;;;;;;10506949;28;20562;-84
2021/01/01 23:13:36;;;;;;;17.10;14.83;;;3.60;99.90;;;;;;10499044;28;20208;-85
2021/01/01 23:18:48;;;;;;;15.50;13.90;;;3.70;99.90;;;;;;10479032;28;20197;-84
2021/01/01 23:23:53;;;;;;;14.30;12.90;;;3.80;99.90;;;;;;10478796;28;20209;-84
2021/01/01 23:28:56;;;;;;;16.17;14.20;;;3.90;99.90;;;;;;10467709;28;20699;-85
2021/01/01 23:34:16;;;;;;;14.83;13.23;;;4.00;99.90;;;;;;10462058;28;20225;-85
2021/01/01 23:39:20;;;;;;;15.60;13.87;;;4.10;99.90;;;;;;10473791;28;20193;-85
2021/01/01 23:44:38;;;;;;;16.93;14.27;;;4.10;99.90;;;;;;10455928;28;20229;-85
2021/01/01 23:49:44;;;;;;;15.40;13.73;;;4.20;99.90;;;;;;10456378;28;20211;-85
2021/01/01 23:54:47;;;;;;;13.77;12.40;;;4.20;99.90;;;;;;10443088;28;20213;-86
2021/01/01 23:59:49;;;;;;;18.10;14.90;;;4.30;99.90;;;;;;10496357;28;20201;-81
